Main page
METAR-TAF:

METAR-TAF

Airports :

Donegal, Ireland

Donegal Airport

latitude: 55-02-39N, longitude: 8-20-28W, elevation: 9 m

Current weather observation

The report was made 8 hours and 19 minutes ago, at 18:30 UTC
Wind 10 kt from the North
Temperature 17°C
Humidity 82%
Pressure 1017 hPa
Visibility 10 km or more
no clouds below 1500 m and no cumulonimbus

METAR: EIDL 231830Z 36010KT CAVOK 17/14 Q1017

Time: 03:49 (02:49 UTC)

Forecast

The report was made 9 hours and 49 minutes ago, at 17:00 UTC
Forecast valid from 23 at 18 UTC to 23 at 21 UTC
Wind 8 kt from the North/Northwest
Visibility 10 km or more
Scattered clouds at a height of 4000 ft

TAF: EIDL 231700Z 2318/2321 34008KT 9999 SCT040

Weather observations and forecasts of more than 4000 airports (METAR and TAF reports).

The available stations are represented by yellow and red dots on the map.

Hover mouse over dot to see the name of the station.

Then click to see weather observations and forecasts.

To change the map : click on the green buttons with a black cross to zoom in, on the green button with a dash to zoom out, or on the green arrows for adjacent maps.


METAR-TAF: